sensor_id;sensor_type;location;lat;lon;timestamp;P1;durP1;ratioP1;P2;durP2;ratioP2
3979;SDS011;2004;52.452;13.120;2022-09-09T00:09:42;5.77;;;3.37;;
3979;SDS011;2004;52.452;13.120;2022-09-09T00:17:42;4.87;;;3.70;;
3979;SDS011;2004;52.452;13.120;2022-09-09T00:33:43;5.67;;;3.57;;
3979;SDS011;2004;52.452;13.120;2022-09-09T00:41:45;7.50;;;4.00;;
3979;SDS011;2004;52.452;13.120;2022-09-09T00:50:11;3.93;;;3.63;;
3979;SDS011;2004;52.452;13.120;2022-09-09T00:58:14;5.70;;;4.27;;
3979;SDS011;2004;52.452;13.120;2022-09-09T01:06:12;4.77;;;4.33;;
3979;SDS011;2004;52.452;13.120;2022-09-09T01:14:22;5.43;;;5.03;;
3979;SDS011;2004;52.452;13.120;2022-09-09T01:30:20;6.27;;;4.97;;
3979;SDS011;2004;52.452;13.120;2022-09-09T01:38:11;6.60;;;4.70;;
3979;SDS011;2004;52.452;13.120;2022-09-09T01:46:02;6.03;;;5.50;;
3979;SDS011;2004;52.452;13.120;2022-09-09T01:53:53;6.90;;;5.70;;
3979;SDS011;2004;52.452;13.120;2022-09-09T02:01:51;6.93;;;6.20;;
3979;SDS011;2004;52.452;13.120;2022-09-09T02:09:49;6.60;;;5.90;;
3979;SDS011;2004;52.452;13.120;2022-09-09T02:17:47;7.47;;;5.70;;
3979;SDS011;2004;52.452;13.120;2022-09-09T02:25:40;8.13;;;5.27;;
3979;SDS011;2004;52.452;13.120;2022-09-09T02:33:33;8.10;;;5.70;;
3979;SDS011;2004;52.452;13.120;2022-09-09T02:41:33;7.03;;;6.37;;
3979;SDS011;2004;52.452;13.120;2022-09-09T02:57:45;6.03;;;5.47;;
3979;SDS011;2004;52.452;13.120;2022-09-09T03:05:38;7.93;;;6.40;;
3979;SDS011;2004;52.452;13.120;2022-09-09T03:13:28;6.20;;;5.70;;
3979;SDS011;2004;52.452;13.120;2022-09-09T03:21:19;6.17;;;5.60;;
3979;SDS011;2004;52.452;13.120;2022-09-09T03:29:10;9.17;;;6.27;;
3979;SDS011;2004;52.452;13.120;2022-09-09T03:37:02;7.80;;;5.80;;
3979;SDS011;2004;52.452;13.120;2022-09-09T03:44:52;7.93;;;6.13;;
3979;SDS011;2004;52.452;13.120;2022-09-09T03:52:43;7.00;;;6.30;;
3979;SDS011;2004;52.452;13.120;2022-09-09T04:00:33;7.60;;;5.20;;
3979;SDS011;2004;52.452;13.120;2022-09-09T04:08:24;4.70;;;4.30;;
3979;SDS011;2004;52.452;13.120;2022-09-09T04:16:15;5.00;;;4.60;;
3979;SDS011;2004;52.452;13.120;2022-09-09T04:24:06;4.80;;;4.30;;
3979;SDS011;2004;52.452;13.120;2022-09-09T04:31:57;5.10;;;4.60;;
3979;SDS011;2004;52.452;13.120;2022-09-09T04:39:48;5.73;;;4.60;;
3979;SDS011;2004;52.452;13.120;2022-09-09T04:47:38;4.97;;;4.57;;
3979;SDS011;2004;52.452;13.120;2022-09-09T04:55:29;7.13;;;4.90;;
3979;SDS011;2004;52.452;13.120;2022-09-09T05:03:20;4.70;;;4.40;;
3979;SDS011;2004;52.452;13.120;2022-09-09T05:11:29;8.50;;;7.10;;
3979;SDS011;2004;52.452;13.120;2022-09-09T05:19:22;4.83;;;4.37;;
3979;SDS011;2004;52.452;13.120;2022-09-09T05:27:12;4.63;;;4.00;;
3979;SDS011;2004;52.452;13.120;2022-09-09T05:35:03;8.67;;;7.07;;
3979;SDS011;2004;52.452;13.120;2022-09-09T05:42:54;6.97;;;4.63;;
3979;SDS011;2004;52.452;13.120;2022-09-09T05:50:52;4.30;;;3.90;;
3979;SDS011;2004;52.452;13.120;2022-09-09T05:58:43;6.53;;;4.00;;
3979;SDS011;2004;52.452;13.120;2022-09-09T06:06:35;7.37;;;4.77;;
3979;SDS011;2004;52.452;13.120;2022-09-09T06:14:26;5.03;;;3.37;;
3979;SDS011;2004;52.452;13.120;2022-09-09T06:22:17;8.83;;;4.03;;
3979;SDS011;2004;52.452;13.120;2022-09-09T06:30:08;3.77;;;3.20;;
3979;SDS011;2004;52.452;13.120;2022-09-09T06:37:59;4.27;;;3.43;;
3979;SDS011;2004;52.452;13.120;2022-09-09T06:46:00;4.00;;;3.70;;
3979;SDS011;2004;52.452;13.120;2022-09-09T06:53:54;3.80;;;3.50;;
3979;SDS011;2004;52.452;13.120;2022-09-09T07:01:46;5.40;;;3.97;;
3979;SDS011;2004;52.452;13.120;2022-09-09T07:09:36;6.70;;;3.37;;
3979;SDS011;2004;52.452;13.120;2022-09-09T07:17:27;7.23;;;3.23;;
3979;SDS011;2004;52.452;13.120;2022-09-09T07:25:19;5.13;;;2.60;;
3979;SDS011;2004;52.452;13.120;2022-09-09T07:33:10;7.57;;;3.43;;
3979;SDS011;2004;52.452;13.120;2022-09-09T07:41:08;7.63;;;3.20;;
3979;SDS011;2004;52.452;13.120;2022-09-09T07:49:01;9.10;;;3.20;;
3979;SDS011;2004;52.452;13.120;2022-09-09T07:56:53;11.07;;;3.67;;
3979;SDS011;2004;52.452;13.120;2022-09-09T08:04:43;4.23;;;2.87;;
3979;SDS011;2004;52.452;13.120;2022-09-09T08:12:34;4.87;;;2.80;;
3979;SDS011;2004;52.452;13.120;2022-09-09T08:20:24;5.80;;;3.10;;
3979;SDS011;2004;52.452;13.120;2022-09-09T08:28:15;4.43;;;2.73;;
3979;SDS011;2004;52.452;13.120;2022-09-09T08:36:05;4.40;;;2.60;;
3979;SDS011;2004;52.452;13.120;2022-09-09T08:44:02;7.83;;;2.87;;
3979;SDS011;2004;52.452;13.120;2022-09-09T08:52:02;4.67;;;2.10;;
3979;SDS011;2004;52.452;13.120;2022-09-09T08:59:58;3.83;;;2.73;;
3979;SDS011;2004;52.452;13.120;2022-09-09T09:07:53;8.17;;;2.80;;
3979;SDS011;2004;52.452;13.120;2022-09-09T09:16:09;3.87;;;2.67;;
3979;SDS011;2004;52.452;13.120;2022-09-09T09:24:19;6.50;;;2.00;;
3979;SDS011;2004;52.452;13.120;2022-09-09T09:32:13;4.13;;;1.87;;
3979;SDS011;2004;52.452;13.120;2022-09-09T09:40:12;5.37;;;2.10;;
3979;SDS011;2004;52.452;13.120;2022-09-09T09:48:05;13.30;;;2.23;;
3979;SDS011;2004;52.452;13.120;2022-09-09T09:56:02;8.47;;;3.47;;
3979;SDS011;2004;52.452;13.120;2022-09-09T10:04:01;3.93;;;1.77;;
3979;SDS011;2004;52.452;13.120;2022-09-09T10:20:12;3.87;;;1.40;;
3979;SDS011;2004;52.452;13.120;2022-09-09T10:28:27;4.60;;;1.53;;
3979;SDS011;2004;52.452;13.120;2022-09-09T10:36:41;2.90;;;1.50;;
3979;SDS011;2004;52.452;13.120;2022-09-09T11:01:43;4.53;;;1.47;;
3979;SDS011;2004;52.452;13.120;2022-09-09T11:09:41;4.43;;;1.37;;
3979;SDS011;2004;52.452;13.120;2022-09-09T11:17:45;4.60;;;1.30;;
3979;SDS011;2004;52.452;13.120;2022-09-09T11:25:43;5.23;;;1.60;;
3979;SDS011;2004;52.452;13.120;2022-09-09T11:42:23;5.37;;;1.57;;
3979;SDS011;2004;52.452;13.120;2022-09-09T12:06:11;5.23;;;1.37;;
3979;SDS011;2004;52.452;13.120;2022-09-09T12:14:18;4.10;;;1.23;;
3979;SDS011;2004;52.452;13.120;2022-09-09T12:30:15;2.60;;;1.10;;
3979;SDS011;2004;52.452;13.120;2022-09-09T12:38:09;3.47;;;0.90;;
3979;SDS011;2004;52.452;13.120;2022-09-09T12:46:08;1.47;;;0.93;;
3979;SDS011;2004;52.452;13.120;2022-09-09T12:54:05;3.50;;;1.03;;
3979;SDS011;2004;52.452;13.120;2022-09-09T13:01:56;2.33;;;1.03;;
3979;SDS011;2004;52.452;13.120;2022-09-09T13:09:48;3.77;;;1.47;;
3979;SDS011;2004;52.452;13.120;2022-09-09T13:17:39;6.93;;;1.67;;
3979;SDS011;2004;52.452;13.120;2022-09-09T13:25:30;3.97;;;1.57;;
3979;SDS011;2004;52.452;13.120;2022-09-09T13:33:22;3.30;;;1.27;;
3979;SDS011;2004;52.452;13.120;2022-09-09T13:41:18;3.37;;;1.30;;
3979;SDS011;2004;52.452;13.120;2022-09-09T13:57:01;2.00;;;0.93;;
3979;SDS011;2004;52.452;13.120;2022-09-09T14:04:52;5.70;;;1.57;;
3979;SDS011;2004;52.452;13.120;2022-09-09T14:12:45;4.53;;;1.73;;
3979;SDS011;2004;52.452;13.120;2022-09-09T14:20:37;2.30;;;0.93;;
3979;SDS011;2004;52.452;13.120;2022-09-09T14:28:27;3.90;;;1.20;;
3979;SDS011;2004;52.452;13.120;2022-09-09T14:36:18;1.50;;;1.03;;
3979;SDS011;2004;52.452;13.120;2022-09-09T14:44:09;4.87;;;1.80;;
3979;SDS011;2004;52.452;13.120;2022-09-09T14:52:00;5.23;;;1.00;;
3979;SDS011;2004;52.452;13.120;2022-09-09T14:59:50;6.27;;;1.20;;
3979;SDS011;2004;52.452;13.120;2022-09-09T15:07:41;1.70;;;1.10;;
3979;SDS011;2004;52.452;13.120;2022-09-09T15:15:32;2.07;;;0.90;;
3979;SDS011;2004;52.452;13.120;2022-09-09T15:23:24;1.67;;;0.80;;
3979;SDS011;2004;52.452;13.120;2022-09-09T15:31:25;1.90;;;1.00;;
3979;SDS011;2004;52.452;13.120;2022-09-09T15:39:18;6.37;;;1.30;;
3979;SDS011;2004;52.452;13.120;2022-09-09T15:47:10;3.00;;;1.50;;
3979;SDS011;2004;52.452;13.120;2022-09-09T15:55:02;3.50;;;1.57;;
3979;SDS011;2004;52.452;13.120;2022-09-09T16:02:53;1.93;;;1.43;;
3979;SDS011;2004;52.452;13.120;2022-09-09T16:10:43;4.20;;;1.70;;
3979;SDS011;2004;52.452;13.120;2022-09-09T16:18:35;11.50;;;1.53;;
3979;SDS011;2004;52.452;13.120;2022-09-09T16:26:28;8.93;;;2.13;;
3979;SDS011;2004;52.452;13.120;2022-09-09T16:34:20;7.03;;;3.00;;
3979;SDS011;2004;52.452;13.120;2022-09-09T16:42:10;3.97;;;1.97;;
3979;SDS011;2004;52.452;13.120;2022-09-09T16:50:01;6.97;;;2.50;;
3979;SDS011;2004;52.452;13.120;2022-09-09T16:57:52;3.50;;;1.87;;
3979;SDS011;2004;52.452;13.120;2022-09-09T17:05:43;6.33;;;2.23;;
3979;SDS011;2004;52.452;13.120;2022-09-09T17:13:34;11.47;;;2.57;;
3979;SDS011;2004;52.452;13.120;2022-09-09T17:21:25;5.07;;;1.90;;
3979;SDS011;2004;52.452;13.120;2022-09-09T17:29:17;7.80;;;1.73;;
3979;SDS011;2004;52.452;13.120;2022-09-09T17:37:08;8.43;;;2.67;;
3979;SDS011;2004;52.452;13.120;2022-09-09T17:44:59;6.33;;;2.77;;
3979;SDS011;2004;52.452;13.120;2022-09-09T17:52:49;6.03;;;3.80;;
3979;SDS011;2004;52.452;13.120;2022-09-09T18:00:40;7.93;;;4.83;;
3979;SDS011;2004;52.452;13.120;2022-09-09T18:08:30;10.33;;;4.17;;
3979;SDS011;2004;52.452;13.120;2022-09-09T18:16:22;8.00;;;3.20;;
3979;SDS011;2004;52.452;13.120;2022-09-09T18:24:14;3.93;;;2.40;;
3979;SDS011;2004;52.452;13.120;2022-09-09T18:32:06;9.77;;;2.60;;
3979;SDS011;2004;52.452;13.120;2022-09-09T18:39:57;7.53;;;2.23;;
3979;SDS011;2004;52.452;13.120;2022-09-09T18:47:48;4.17;;;1.90;;
3979;SDS011;2004;52.452;13.120;2022-09-09T18:55:38;2.70;;;1.70;;
3979;SDS011;2004;52.452;13.120;2022-09-09T19:03:29;4.13;;;1.60;;
3979;SDS011;2004;52.452;13.120;2022-09-09T19:11:21;5.37;;;1.53;;
3979;SDS011;2004;52.452;13.120;2022-09-09T19:19:14;5.43;;;1.53;;
3979;SDS011;2004;52.452;13.120;2022-09-09T19:27:11;2.53;;;1.13;;
3979;SDS011;2004;52.452;13.120;2022-09-09T19:35:02;3.23;;;1.70;;
3979;SDS011;2004;52.452;13.120;2022-09-09T19:42:52;4.67;;;1.70;;
3979;SDS011;2004;52.452;13.120;2022-09-09T19:50:43;3.87;;;1.43;;
3979;SDS011;2004;52.452;13.120;2022-09-09T19:58:34;3.27;;;1.53;;
3979;SDS011;2004;52.452;13.120;2022-09-09T20:06:27;1.67;;;1.57;;
3979;SDS011;2004;52.452;13.120;2022-09-09T20:14:19;2.40;;;1.70;;
3979;SDS011;2004;52.452;13.120;2022-09-09T20:22:09;5.33;;;2.10;;
3979;SDS011;2004;52.452;13.120;2022-09-09T20:30:00;4.00;;;1.73;;
3979;SDS011;2004;52.452;13.120;2022-09-09T20:37:51;1.83;;;1.50;;
3979;SDS011;2004;52.452;13.120;2022-09-09T20:45:41;1.83;;;1.30;;
3979;SDS011;2004;52.452;13.120;2022-09-09T20:53:32;2.63;;;1.70;;
3979;SDS011;2004;52.452;13.120;2022-09-09T21:01:23;4.70;;;2.40;;
3979;SDS011;2004;52.452;13.120;2022-09-09T21:09:14;6.27;;;1.27;;
3979;SDS011;2004;52.452;13.120;2022-09-09T21:17:04;1.80;;;1.20;;
3979;SDS011;2004;52.452;13.120;2022-09-09T21:24:55;2.70;;;1.30;;
3979;SDS011;2004;52.452;13.120;2022-09-09T21:32:46;2.53;;;1.47;;
3979;SDS011;2004;52.452;13.120;2022-09-09T21:40:37;2.97;;;1.00;;
3979;SDS011;2004;52.452;13.120;2022-09-09T21:48:28;3.37;;;2.50;;
3979;SDS011;2004;52.452;13.120;2022-09-09T21:56:18;8.53;;;1.80;;
3979;SDS011;2004;52.452;13.120;2022-09-09T22:04:09;3.00;;;1.53;;
3979;SDS011;2004;52.452;13.120;2022-09-09T22:11:59;3.83;;;1.57;;
3979;SDS011;2004;52.452;13.120;2022-09-09T22:19:50;2.57;;;1.20;;
3979;SDS011;2004;52.452;13.120;2022-09-09T22:27:41;1.87;;;1.77;;
3979;SDS011;2004;52.452;13.120;2022-09-09T22:35:31;4.87;;;1.57;;
3979;SDS011;2004;52.452;13.120;2022-09-09T22:43:33;7.90;;;1.20;;
3979;SDS011;2004;52.452;13.120;2022-09-09T22:51:25;3.37;;;1.50;;
3979;SDS011;2004;52.452;13.120;2022-09-09T22:59:17;3.10;;;1.53;;
3979;SDS011;2004;52.452;13.120;2022-09-09T23:07:08;2.17;;;1.73;;
3979;SDS011;2004;52.452;13.120;2022-09-09T23:14:59;5.63;;;1.83;;
3979;SDS011;2004;52.452;13.120;2022-09-09T23:22:49;3.17;;;1.47;;
3979;SDS011;2004;52.452;13.120;2022-09-09T23:30:41;3.47;;;1.50;;
3979;SDS011;2004;52.452;13.120;2022-09-09T23:38:31;2.90;;;1.40;;
3979;SDS011;2004;52.452;13.120;2022-09-09T23:46:23;6.90;;;2.10;;
3979;SDS011;2004;52.452;13.120;2022-09-09T23:54:18;3.33;;;1.73;;
